Terminal Aerodrome Forecast
Issued by NWS Spokane, WA

Home | Current Version | Previous Version | Text Only | Print | Product List | Glossary On
Versions: 1 2 3 4 5 6 7 8 9 10 11 12 13
000
FTUS46 KOTX 182323
TAFLWS
TAF
KLWS 182323Z 1900/1924 09008KT P6SM SKC
     FM190400 14004KT P6SM SCT250
     FM192100 16010KT P6SM SCT100=

USA.gov is the U.S. government's official web portal to all federal, state and local government web resources and services.